createdAt,value
2018-07-02T00:00:37.208Z,2.60
2018-07-02T00:03:06.480Z,2.40
2018-07-02T00:05:46.452Z,2.20
2018-07-02T00:08:15.718Z,2.40
2018-07-02T00:10:44.968Z,2.50
2018-07-02T00:13:14.305Z,2.33
2018-07-02T00:15:43.568Z,2.70
2018-07-02T00:18:12.993Z,2.70
2018-07-02T00:20:42.283Z,2.27
2018-07-02T00:23:11.660Z,2.77
2018-07-02T00:25:40.903Z,2.70
2018-07-02T00:28:10.121Z,2.30
2018-07-02T00:30:39.401Z,2.23
2018-07-02T00:33:08.627Z,2.40
2018-07-02T00:35:37.828Z,2.57
2018-07-02T00:38:07.054Z,2.90
2018-07-02T00:40:35.777Z,2.50
2018-07-02T00:43:05.049Z,2.40
2018-07-02T00:45:34.308Z,2.30
2018-07-02T00:48:03.652Z,2.30
2018-07-02T00:50:32.912Z,2.20
2018-07-02T00:53:02.139Z,2.57
2018-07-02T00:55:31.364Z,2.77
2018-07-02T00:58:00.604Z,2.30
2018-07-02T01:00:29.833Z,2.40
2018-07-02T01:02:59.250Z,2.70
2018-07-02T01:05:28.444Z,2.50
2018-07-02T01:07:57.838Z,2.60
2018-07-02T01:10:27.035Z,2.80
2018-07-02T01:12:56.509Z,2.60
2018-07-02T01:15:25.743Z,2.40
2018-07-02T01:17:55.040Z,2.70
2018-07-02T01:20:24.313Z,2.53
2018-07-02T01:22:53.592Z,2.30
2018-07-02T01:25:22.960Z,3.13
2018-07-02T01:27:52.184Z,2.87
2018-07-02T01:30:21.672Z,2.77
2018-07-02T01:32:51.091Z,2.70
2018-07-02T01:35:20.325Z,2.70
2018-07-02T01:37:49.564Z,3.07
2018-07-02T01:40:18.792Z,3.00
2018-07-02T01:42:48.040Z,2.90
2018-07-02T01:45:17.248Z,2.90
2018-07-02T01:47:46.452Z,3.00
2018-07-02T01:50:15.745Z,2.90
2018-07-02T01:52:45.057Z,2.90
2018-07-02T01:55:14.411Z,2.63
2018-07-02T01:57:43.685Z,2.80
2018-07-02T02:00:12.909Z,2.73
2018-07-02T02:02:42.153Z,2.90
2018-07-02T02:05:11.416Z,2.53
2018-07-02T02:07:40.641Z,2.90
2018-07-02T02:10:09.906Z,2.70
2018-07-02T02:12:39.179Z,2.80
2018-07-02T02:15:08.740Z,2.47
2018-07-02T02:17:37.675Z,2.77
2018-07-02T02:20:07.028Z,2.73
2018-07-02T02:22:36.543Z,2.87
2018-07-02T02:25:06.509Z,2.50
2018-07-02T02:27:35.770Z,2.80
2018-07-02T02:30:05.716Z,2.93
2018-07-02T02:32:35.059Z,2.70
2018-07-02T02:35:04.352Z,3.20
2018-07-02T02:37:33.616Z,3.30
2018-07-02T02:40:02.988Z,3.00
2018-07-02T02:42:32.534Z,2.97
2018-07-02T02:45:01.759Z,2.87
2018-07-02T02:47:30.993Z,3.00
2018-07-02T02:50:00.246Z,3.13
2018-07-02T02:52:29.557Z,2.73
2018-07-02T02:54:58.827Z,2.90
2018-07-02T02:57:28.195Z,3.30
2018-07-02T02:59:57.484Z,3.30
2018-07-02T03:02:26.982Z,3.13
2018-07-02T03:04:56.204Z,3.00
2018-07-02T03:07:25.516Z,3.13
2018-07-02T03:09:54.760Z,2.90
2018-07-02T03:12:24.028Z,3.20
2018-07-02T03:14:53.281Z,2.80
2018-07-02T03:17:22.492Z,2.80
2018-07-02T03:19:51.755Z,2.97
2018-07-02T03:22:20.993Z,3.17
2018-07-02T03:24:50.352Z,3.10
2018-07-02T03:27:19.686Z,2.67
2018-07-02T03:29:48.961Z,3.43
2018-07-02T03:32:18.228Z,3.20
2018-07-02T03:34:47.453Z,2.93
2018-07-02T03:37:16.680Z,3.33
2018-07-02T03:39:45.895Z,3.17
2018-07-02T03:42:15.247Z,2.63
2018-07-02T03:44:44.452Z,2.97
2018-07-02T03:47:13.680Z,3.10
2018-07-02T03:49:42.882Z,3.60
2018-07-02T03:52:12.089Z,3.20
2018-07-02T03:54:41.315Z,2.90
2018-07-02T03:57:10.517Z,2.97
2018-07-02T03:59:40.080Z,3.60
2018-07-02T04:02:09.423Z,2.87
2018-07-02T04:04:38.675Z,3.00
2018-07-02T04:07:07.979Z,3.00
2018-07-02T04:09:37.220Z,3.63
2018-07-02T04:12:06.524Z,3.47
2018-07-02T04:14:35.753Z,3.30
2018-07-02T04:17:04.951Z,3.70
2018-07-02T04:19:34.173Z,3.27
2018-07-02T04:22:03.648Z,3.80
2018-07-02T04:24:32.858Z,3.40
2018-07-02T04:27:02.085Z,3.53
2018-07-02T04:29:31.327Z,3.40
2018-07-02T04:32:00.733Z,3.50
2018-07-02T04:34:29.956Z,3.73
2018-07-02T04:36:59.224Z,3.53
2018-07-02T04:39:28.445Z,3.47
2018-07-02T04:41:57.685Z,3.47
2018-07-02T04:44:26.916Z,3.27
2018-07-02T04:46:56.178Z,3.10
2018-07-02T04:49:26.236Z,4.10
2018-07-02T04:51:55.773Z,3.83
2018-07-02T04:54:25.000Z,3.50
2018-07-02T04:56:54.238Z,3.40
2018-07-02T04:59:23.597Z,3.73
2018-07-02T05:01:52.941Z,3.43
2018-07-02T05:04:22.229Z,4.10
2018-07-02T05:06:51.816Z,4.27
2018-07-02T05:09:21.109Z,6.23
2018-07-02T05:11:50.439Z,4.33
2018-07-02T05:14:19.649Z,4.63
2018-07-02T05:16:48.900Z,3.93
2018-07-02T05:19:18.175Z,3.90
2018-07-02T05:21:47.481Z,3.33
2018-07-02T05:24:16.747Z,3.37
2018-07-02T05:26:46.000Z,3.37
2018-07-02T05:29:15.257Z,3.90
2018-07-02T05:31:44.587Z,3.70
2018-07-02T05:34:13.873Z,2.93
2018-07-02T05:36:43.148Z,3.73
2018-07-02T05:39:12.692Z,3.63
2018-07-02T05:41:42.043Z,3.60
2018-07-02T05:44:11.385Z,3.93
2018-07-02T05:46:40.720Z,4.20
2018-07-02T05:49:10.019Z,3.80
2018-07-02T05:51:39.269Z,3.60
2018-07-02T05:54:08.597Z,4.07
2018-07-02T05:56:37.989Z,3.97
2018-07-02T05:59:07.285Z,4.00
2018-07-02T06:01:36.602Z,3.93
2018-07-02T06:04:05.888Z,4.00
2018-07-02T06:06:35.127Z,4.47
2018-07-02T06:09:06.636Z,4.53
2018-07-02T06:11:36.348Z,4.37
2018-07-02T06:14:05.634Z,5.03
2018-07-02T06:16:35.011Z,5.10
2018-07-02T06:19:04.300Z,4.53
2018-07-02T06:21:33.681Z,5.10
2018-07-02T06:24:03.006Z,4.43
2018-07-02T06:26:32.384Z,4.50
2018-07-02T06:29:01.706Z,4.20
2018-07-02T06:31:31.117Z,3.83
2018-07-02T06:34:00.437Z,4.60
2018-07-02T06:36:29.801Z,5.07
2018-07-02T06:38:59.067Z,5.20
2018-07-02T06:41:28.509Z,5.07
2018-07-02T06:43:58.147Z,5.90
2018-07-02T06:46:27.448Z,6.33
2018-07-02T06:48:56.801Z,6.03
2018-07-02T06:51:28.364Z,5.83
2018-07-02T06:53:57.898Z,7.57
2018-07-02T06:56:27.253Z,6.60
2018-07-02T06:58:56.604Z,14.00
2018-07-02T07:01:25.360Z,13.50
2018-07-02T07:03:54.687Z,13.17
2018-07-02T07:06:23.463Z,11.40
2018-07-02T07:08:52.818Z,10.70
2018-07-02T07:11:22.272Z,9.43
2018-07-02T07:13:55.101Z,9.00
2018-07-02T07:16:25.071Z,9.00
2018-07-02T07:18:54.368Z,8.80
2018-07-02T07:21:23.800Z,7.57
2018-07-02T07:23:53.035Z,7.57
2018-07-02T07:26:22.285Z,8.23
2018-07-02T07:28:53.092Z,8.07
2018-07-02T07:31:22.639Z,8.90
2018-07-02T07:33:51.975Z,9.33
2018-07-02T07:36:21.211Z,7.67
2018-07-02T07:38:50.514Z,8.03
2018-07-02T07:41:19.914Z,8.40
2018-07-02T07:43:49.223Z,8.83
2018-07-02T07:46:18.544Z,9.70
2018-07-02T07:48:48.174Z,9.27
2018-07-02T07:51:17.557Z,9.63
2018-07-02T07:53:46.881Z,10.67
2018-07-02T07:56:16.194Z,9.67
2018-07-02T07:58:45.518Z,9.37
2018-07-02T08:01:14.944Z,9.47
2018-07-02T08:03:44.401Z,9.53
2018-07-02T08:06:13.667Z,9.40
2018-07-02T08:08:42.973Z,10.00
2018-07-02T08:11:12.327Z,9.33
2018-07-02T08:13:43.493Z,9.40
2018-07-02T08:16:12.854Z,9.10
2018-07-02T08:18:42.242Z,9.70
2018-07-02T08:21:12.273Z,9.27
2018-07-02T08:23:41.560Z,9.63
2018-07-02T08:26:10.956Z,9.07
2018-07-02T08:28:40.245Z,9.23
2018-07-02T08:31:09.573Z,9.10
2018-07-02T08:33:38.812Z,8.67
2018-07-02T08:36:08.196Z,8.50
2018-07-02T08:38:37.443Z,8.37
2018-07-02T08:41:06.809Z,8.60
2018-07-02T08:43:36.073Z,8.33
2018-07-02T08:46:05.348Z,8.60
2018-07-02T08:48:34.636Z,7.83
2018-07-02T08:51:04.010Z,8.40
2018-07-02T08:53:32.754Z,7.63
2018-07-02T08:56:02.016Z,7.37
2018-07-02T08:58:31.357Z,8.17
2018-07-02T09:01:00.725Z,7.60
2018-07-02T09:03:29.962Z,7.70
2018-07-02T09:05:59.254Z,7.63
2018-07-02T09:08:28.618Z,6.80
2018-07-02T09:10:57.958Z,7.80
2018-07-02T09:13:27.189Z,6.97
2018-07-02T09:15:56.484Z,7.40
2018-07-02T09:18:25.989Z,7.27
2018-07-02T09:20:55.292Z,7.10
2018-07-02T09:23:24.538Z,6.73
2018-07-02T09:25:53.814Z,7.13
2018-07-02T09:28:23.158Z,6.30
2018-07-02T09:30:52.493Z,6.43
2018-07-02T09:33:21.749Z,6.00
2018-07-02T09:35:51.040Z,6.87
2018-07-02T09:38:20.351Z,6.10
2018-07-02T09:40:49.692Z,6.90
2018-07-02T09:43:18.994Z,6.10
2018-07-02T09:45:48.311Z,6.03
2018-07-02T09:48:17.596Z,6.67
2018-07-02T09:50:46.921Z,5.90
2018-07-02T09:53:16.279Z,6.87
2018-07-02T09:55:45.564Z,6.37
2018-07-02T09:58:14.902Z,6.57
2018-07-02T10:00:44.297Z,6.13
2018-07-02T10:03:13.580Z,6.80
2018-07-02T10:05:42.880Z,6.43
2018-07-02T10:08:12.277Z,6.77
2018-07-02T10:10:41.549Z,5.90
2018-07-02T10:13:10.816Z,6.70
2018-07-02T10:15:40.081Z,6.67
2018-07-02T10:18:09.348Z,6.77
2018-07-02T10:20:38.687Z,6.60
2018-07-02T10:23:08.021Z,6.60
2018-07-02T10:25:37.389Z,5.80
2018-07-02T10:28:06.631Z,6.20
2018-07-02T10:30:35.952Z,6.40
2018-07-02T10:33:05.289Z,7.03
2018-07-02T10:35:34.585Z,7.00
2018-07-02T10:38:03.887Z,7.40
2018-07-02T10:40:33.174Z,6.83
2018-07-02T10:43:02.437Z,7.10
2018-07-02T10:45:31.699Z,6.60
2018-07-02T10:48:00.985Z,7.30
2018-07-02T10:50:30.315Z,6.77
2018-07-02T10:52:59.623Z,7.23
2018-07-02T10:55:28.983Z,7.20
2018-07-02T10:57:58.314Z,8.00
2018-07-02T11:00:27.548Z,6.77
2018-07-02T11:02:57.376Z,7.27
2018-07-02T11:05:26.696Z,6.90
2018-07-02T11:07:56.055Z,7.47
2018-07-02T11:10:25.417Z,7.13
2018-07-02T11:12:54.703Z,7.10
2018-07-02T11:15:23.952Z,6.57
2018-07-02T11:17:52.711Z,7.00
2018-07-02T11:20:21.993Z,7.17
2018-07-02T11:22:51.337Z,6.83
2018-07-02T11:25:20.069Z,6.63
2018-07-02T11:27:49.319Z,6.43
2018-07-02T11:30:18.723Z,6.43
2018-07-02T11:32:48.161Z,6.73
2018-07-02T11:35:17.478Z,6.73
2018-07-02T11:37:46.716Z,6.47
2018-07-02T11:40:15.960Z,6.10
2018-07-02T11:42:45.283Z,6.40
2018-07-02T11:45:14.525Z,6.17
2018-07-02T11:47:43.813Z,6.47
2018-07-02T11:50:13.079Z,6.00
2018-07-02T11:52:42.389Z,6.00
2018-07-02T11:55:11.643Z,5.90
2018-07-02T11:57:40.893Z,6.23
2018-07-02T12:00:10.400Z,6.17
2018-07-02T12:02:40.201Z,5.93
2018-07-02T12:05:09.429Z,6.20
2018-07-02T12:07:38.737Z,5.37
2018-07-02T12:10:08.200Z,5.73
2018-07-02T12:12:37.610Z,6.00
2018-07-02T12:15:06.931Z,6.03
2018-07-02T12:17:36.352Z,6.43
2018-07-02T12:20:06.020Z,6.83
2018-07-02T12:22:35.401Z,6.17
2018-07-02T12:25:04.721Z,6.57
2018-07-02T12:27:34.040Z,6.40
2018-07-02T12:30:03.328Z,6.13
2018-07-02T12:32:32.797Z,6.27
2018-07-02T12:35:02.133Z,5.67
2018-07-02T12:37:31.473Z,5.97
2018-07-02T12:40:00.815Z,6.80
2018-07-02T12:42:30.179Z,6.20
2018-07-02T12:44:59.456Z,7.20
2018-07-02T12:47:28.733Z,6.80
2018-07-02T12:49:58.022Z,6.40
2018-07-02T12:52:27.356Z,6.90
2018-07-02T12:54:56.641Z,7.50
2018-07-02T12:57:25.946Z,6.63
2018-07-02T12:59:55.295Z,7.17
2018-07-02T13:02:24.720Z,6.57
2018-07-02T13:04:54.692Z,7.20
2018-07-02T13:07:23.483Z,6.70
2018-07-02T13:09:52.923Z,6.70
2018-07-02T13:12:22.834Z,8.93
2018-07-02T13:14:52.300Z,11.50
2018-07-02T13:17:21.588Z,9.80
2018-07-02T13:19:50.924Z,9.07
2018-07-02T13:22:20.385Z,9.57
2018-07-02T13:24:49.678Z,8.23
2018-07-02T13:27:18.935Z,8.30
2018-07-02T13:29:48.209Z,8.23
2018-07-02T13:32:17.615Z,7.07
2018-07-02T13:34:46.973Z,7.20
2018-07-02T13:37:16.580Z,7.23
2018-07-02T13:39:45.878Z,7.70
2018-07-02T13:42:15.246Z,8.13
2018-07-02T13:44:45.032Z,7.50
2018-07-02T13:47:14.299Z,7.57
2018-07-02T13:49:43.604Z,7.57
2018-07-02T13:52:12.921Z,7.63
2018-07-02T13:54:42.244Z,7.80
2018-07-02T13:57:11.581Z,7.97
2018-07-02T13:59:40.919Z,8.10
2018-07-02T14:02:10.232Z,8.37
2018-07-02T14:04:39.564Z,7.90
2018-07-02T14:07:08.826Z,8.47
2018-07-02T14:09:38.218Z,8.83
2018-07-02T14:12:07.580Z,8.37
2018-07-02T14:14:36.866Z,7.90
2018-07-02T14:17:06.437Z,7.57
2018-07-02T14:19:35.710Z,8.07
2018-07-02T14:22:05.033Z,7.80
2018-07-02T14:24:34.288Z,7.77
2018-07-02T14:27:03.521Z,8.00
2018-07-02T14:29:32.780Z,7.63
2018-07-02T14:32:02.121Z,8.13
2018-07-02T14:34:31.458Z,8.00
2018-07-02T14:37:00.761Z,8.00
2018-07-02T14:39:30.056Z,7.60
2018-07-02T14:41:59.483Z,7.50
2018-07-02T14:44:28.791Z,7.30
2018-07-02T14:46:58.036Z,8.20
2018-07-02T14:49:27.805Z,7.70
2018-07-02T14:51:57.137Z,7.87
2018-07-02T14:54:26.371Z,7.03
2018-07-02T14:56:55.624Z,7.23
2018-07-02T14:59:24.908Z,6.60
2018-07-02T15:01:54.308Z,6.90
2018-07-02T15:04:23.576Z,7.47
2018-07-02T15:06:52.332Z,6.87
2018-07-02T15:09:21.552Z,7.60
2018-07-02T15:11:51.147Z,7.60
2018-07-02T15:14:20.519Z,6.93
2018-07-02T15:16:53.267Z,6.90
2018-07-02T15:19:22.654Z,6.83
2018-07-02T15:21:52.068Z,7.23
2018-07-02T15:24:21.334Z,7.50
2018-07-02T15:26:50.612Z,7.10
2018-07-02T15:29:19.880Z,7.00
2018-07-02T15:31:50.249Z,7.20
2018-07-02T15:34:19.492Z,7.10
2018-07-02T15:36:48.767Z,6.73
2018-07-02T15:39:18.123Z,6.70
2018-07-02T15:41:47.569Z,7.27
2018-07-02T15:44:16.744Z,7.40
2018-07-02T15:46:46.114Z,7.17
2018-07-02T15:49:15.367Z,7.50
2018-07-02T15:51:45.147Z,7.00
2018-07-02T15:54:15.557Z,7.33
2018-07-02T15:56:44.885Z,7.17
2018-07-02T15:59:14.185Z,6.70
2018-07-02T16:01:43.509Z,6.60
2018-07-02T16:04:12.825Z,6.40
2018-07-02T16:06:42.101Z,6.27
2018-07-02T16:09:12.446Z,6.83
2018-07-02T16:11:41.864Z,6.90
2018-07-02T16:14:11.138Z,6.37
2018-07-02T16:16:40.424Z,6.30
2018-07-02T16:19:09.780Z,6.43
2018-07-02T16:21:39.122Z,7.10
2018-07-02T16:24:09.250Z,6.90
2018-07-02T16:26:39.013Z,6.73
2018-07-02T16:29:08.297Z,6.70
2018-07-02T16:31:37.671Z,7.40
2018-07-02T16:34:09.441Z,6.97
2018-07-02T16:36:38.242Z,6.60
2018-07-02T16:39:09.749Z,6.47
2018-07-02T16:41:39.190Z,6.97
2018-07-02T16:44:08.901Z,6.50
2018-07-02T16:46:38.210Z,6.57
2018-07-02T16:49:07.457Z,6.70
2018-07-02T16:51:36.899Z,6.50
2018-07-02T16:54:06.160Z,6.60
2018-07-02T16:56:38.779Z,6.43
2018-07-02T16:59:08.210Z,6.90
2018-07-02T17:01:37.569Z,6.53
2018-07-02T17:04:07.022Z,6.50
2018-07-02T17:06:36.337Z,6.83
2018-07-02T17:09:09.556Z,6.70
2018-07-02T17:11:39.685Z,6.40
2018-07-02T17:14:09.305Z,6.93
2018-07-02T17:16:38.987Z,6.53
2018-07-02T17:19:08.326Z,6.50
2018-07-02T17:21:37.815Z,6.63
2018-07-02T17:24:07.261Z,6.53
2018-07-02T17:26:36.485Z,6.77
2018-07-02T17:29:05.759Z,6.60
2018-07-02T17:31:35.259Z,5.97
2018-07-02T17:34:04.520Z,6.53
2018-07-02T17:36:33.862Z,6.57
2018-07-02T17:39:03.169Z,6.67
2018-07-02T17:41:32.511Z,6.03
2018-07-02T17:44:01.817Z,6.50
2018-07-02T17:46:31.105Z,6.13
2018-07-02T17:49:00.397Z,6.43
2018-07-02T17:51:29.800Z,6.10
2018-07-02T17:53:59.071Z,5.93
2018-07-02T17:56:28.295Z,6.03
2018-07-02T17:58:57.571Z,6.20
2018-07-02T18:01:26.893Z,5.97
2018-07-02T18:03:56.369Z,5.80
2018-07-02T18:06:25.629Z,5.53
2018-07-02T18:08:54.895Z,5.90
2018-07-02T18:11:24.220Z,5.80
2018-07-02T18:13:53.494Z,5.60
2018-07-02T18:16:22.749Z,6.27
2018-07-02T18:18:52.090Z,5.73
2018-07-02T18:21:21.343Z,5.53
2018-07-02T18:23:50.589Z,5.40
2018-07-02T18:26:19.954Z,5.40
2018-07-02T18:28:49.170Z,5.30
2018-07-02T18:31:18.557Z,5.87
2018-07-02T18:33:49.755Z,5.60
2018-07-02T18:36:19.121Z,5.70
2018-07-02T18:38:48.417Z,5.90
2018-07-02T18:41:17.779Z,5.57
2018-07-02T18:43:46.984Z,5.70
2018-07-02T18:46:16.277Z,5.60
2018-07-02T18:48:45.542Z,5.40
2018-07-02T18:51:14.880Z,5.97
2018-07-02T18:53:44.151Z,5.67
2018-07-02T18:56:13.425Z,5.30
2018-07-02T18:58:42.774Z,5.93
2018-07-02T19:01:12.081Z,5.50
2018-07-02T19:03:40.851Z,5.30
2018-07-02T19:06:10.104Z,5.50
2018-07-02T19:08:39.709Z,5.60
2018-07-02T19:11:09.041Z,5.87
2018-07-02T19:13:38.287Z,5.40
2018-07-02T19:16:07.527Z,5.30
2018-07-02T19:18:36.793Z,5.07
2018-07-02T19:21:06.222Z,5.10
2018-07-02T19:23:35.470Z,5.47
2018-07-02T19:26:04.845Z,5.30
2018-07-02T19:28:34.213Z,5.47
2018-07-02T19:31:03.600Z,5.53
2018-07-02T19:33:32.902Z,5.53
2018-07-02T19:36:02.173Z,5.23
2018-07-02T19:38:31.462Z,5.27
2018-07-02T19:41:01.243Z,5.07
2018-07-02T19:43:30.495Z,5.63
2018-07-02T19:45:59.736Z,5.20
2018-07-02T19:48:28.957Z,5.27
2018-07-02T19:50:58.271Z,5.40
2018-07-02T19:53:27.496Z,5.53
2018-07-02T19:55:56.808Z,5.33
2018-07-02T19:58:26.101Z,5.50
2018-07-02T20:00:55.441Z,5.20
2018-07-02T20:03:24.800Z,6.57
2018-07-02T20:05:54.133Z,5.53
2018-07-02T20:08:23.392Z,6.40
2018-07-02T20:10:53.170Z,5.93
2018-07-02T20:13:22.499Z,5.57
2018-07-02T20:15:51.672Z,5.27
2018-07-02T20:18:20.876Z,5.40
2018-07-02T20:20:50.135Z,5.73
2018-07-02T20:23:19.337Z,5.00
2018-07-02T20:25:48.558Z,5.27
2018-07-02T20:28:17.758Z,5.17
2018-07-02T20:30:47.140Z,5.30
2018-07-02T20:33:17.304Z,5.57
2018-07-02T20:35:47.025Z,5.50
2018-07-02T20:38:16.485Z,5.50
2018-07-02T20:40:45.775Z,5.40
2018-07-02T20:43:15.028Z,5.47
2018-07-02T20:45:44.610Z,6.17
2018-07-02T20:48:13.796Z,5.47
2018-07-02T20:50:43.035Z,5.67
2018-07-02T20:53:12.237Z,5.60
2018-07-02T20:55:41.602Z,5.47
2018-07-02T20:58:10.799Z,5.50
2018-07-02T21:00:39.998Z,5.17
2018-07-02T21:03:09.202Z,5.20
2018-07-02T21:05:38.402Z,4.90
2018-07-02T21:08:07.693Z,5.40
2018-07-02T21:10:36.954Z,5.53
2018-07-02T21:13:06.128Z,5.23
2018-07-02T21:15:35.316Z,5.37
2018-07-02T21:18:04.628Z,5.17
2018-07-02T21:20:33.831Z,5.50
2018-07-02T21:23:03.168Z,5.13
2018-07-02T21:25:32.384Z,5.73
2018-07-02T21:28:01.582Z,4.93
2018-07-02T21:30:30.789Z,5.57
2018-07-02T21:33:00.013Z,5.13
2018-07-02T21:35:29.214Z,5.20
2018-07-02T21:37:58.450Z,5.53
2018-07-02T21:40:27.705Z,5.40
2018-07-02T21:42:56.970Z,5.77
2018-07-02T21:45:26.174Z,5.63
2018-07-02T21:47:55.368Z,5.33
2018-07-02T21:50:24.584Z,5.47
2018-07-02T21:52:53.800Z,5.13
2018-07-02T21:55:22.996Z,5.40
2018-07-02T21:57:52.187Z,5.30
2018-07-02T22:00:21.368Z,5.27
2018-07-02T22:02:50.616Z,5.33
2018-07-02T22:05:19.817Z,4.93
2018-07-02T22:07:49.093Z,5.23
2018-07-02T22:10:18.282Z,5.03
2018-07-02T22:12:47.597Z,5.10
2018-07-02T22:15:16.828Z,5.10
2018-07-02T22:17:46.010Z,5.30
2018-07-02T22:20:15.196Z,5.00
2018-07-02T22:22:44.397Z,5.43
2018-07-02T22:25:13.580Z,5.07
2018-07-02T22:27:42.748Z,4.77
2018-07-02T22:30:11.917Z,4.77
2018-07-02T22:32:41.174Z,4.97
2018-07-02T22:35:10.373Z,5.60
2018-07-02T22:37:39.570Z,5.33
2018-07-02T22:40:08.738Z,4.60
2018-07-02T22:42:38.065Z,5.20
2018-07-02T22:45:07.676Z,5.20
2018-07-02T22:47:36.916Z,4.90
2018-07-02T22:50:06.172Z,5.30
2018-07-02T22:52:35.417Z,5.07
2018-07-02T22:55:04.917Z,5.07
2018-07-02T22:57:34.117Z,5.70
2018-07-02T23:00:03.300Z,5.13
2018-07-02T23:02:32.571Z,4.70
2018-07-02T23:05:01.741Z,4.97
2018-07-02T23:07:30.939Z,5.07
2018-07-02T23:10:00.109Z,5.20
2018-07-02T23:12:29.360Z,4.77
2018-07-02T23:14:58.564Z,5.10
2018-07-02T23:17:27.910Z,5.10
2018-07-02T23:19:57.159Z,5.17
2018-07-02T23:22:31.220Z,5.13
2018-07-02T23:25:00.400Z,5.47
2018-07-02T23:27:29.227Z,5.30
2018-07-02T23:29:58.404Z,4.97
2018-07-02T23:32:27.663Z,5.60
2018-07-02T23:34:56.848Z,5.37
2018-07-02T23:37:26.057Z,5.10
2018-07-02T23:39:55.244Z,5.40
2018-07-02T23:42:24.444Z,5.07
2018-07-02T23:44:53.653Z,5.53
2018-07-02T23:47:22.844Z,5.10
2018-07-02T23:49:52.089Z,5.07
2018-07-02T23:52:21.414Z,5.30
2018-07-02T23:54:50.620Z,5.47
2018-07-02T23:57:19.816Z,5.17
2018-07-02T23:59:49.189Z,5.23
